sensor_id;sensor_type;location;lat;lon;timestamp;P1;durP1;ratioP1;P2;durP2;ratioP2
3149;SDS011;32503;47.748;8.960;2023-04-25T00:02:13;2.20;;;2.10;;
3149;SDS011;32503;47.748;8.960;2023-04-25T00:04:42;2.60;;;2.40;;
3149;SDS011;32503;47.748;8.960;2023-04-25T00:07:09;3.03;;;2.50;;
3149;SDS011;32503;47.748;8.960;2023-04-25T00:09:36;2.53;;;2.33;;
3149;SDS011;32503;47.748;8.960;2023-04-25T00:12:04;2.50;;;2.30;;
3149;SDS011;32503;47.748;8.960;2023-04-25T00:14:31;2.57;;;2.47;;
3149;SDS011;32503;47.748;8.960;2023-04-25T00:17:00;2.60;;;2.23;;
3149;SDS011;32503;47.748;8.960;2023-04-25T00:19:29;3.10;;;1.80;;
3149;SDS011;32503;47.748;8.960;2023-04-25T00:21:59;2.10;;;2.00;;
3149;SDS011;32503;47.748;8.960;2023-04-25T00:24:26;1.97;;;1.70;;
3149;SDS011;32503;47.748;8.960;2023-04-25T00:26:53;3.00;;;2.50;;
3149;SDS011;32503;47.748;8.960;2023-04-25T00:29:20;1.60;;;1.50;;
3149;SDS011;32503;47.748;8.960;2023-04-25T00:31:47;2.33;;;2.20;;
3149;SDS011;32503;47.748;8.960;2023-04-25T00:34:17;1.93;;;1.83;;
3149;SDS011;32503;47.748;8.960;2023-04-25T00:36:44;2.40;;;2.20;;
3149;SDS011;32503;47.748;8.960;2023-04-25T00:39:13;1.97;;;1.87;;
3149;SDS011;32503;47.748;8.960;2023-04-25T00:41:40;2.60;;;2.40;;
3149;SDS011;32503;47.748;8.960;2023-04-25T00:44:08;1.90;;;1.70;;
3149;SDS011;32503;47.748;8.960;2023-04-25T00:46:36;4.40;;;1.70;;
3149;SDS011;32503;47.748;8.960;2023-04-25T00:49:04;2.00;;;1.80;;
3149;SDS011;32503;47.748;8.960;2023-04-25T00:51:31;1.70;;;1.60;;
3149;SDS011;32503;47.748;8.960;2023-04-25T00:54:00;2.13;;;1.73;;
3149;SDS011;32503;47.748;8.960;2023-04-25T00:56:29;2.03;;;1.93;;
3149;SDS011;32503;47.748;8.960;2023-04-25T00:58:56;1.90;;;1.80;;
3149;SDS011;32503;47.748;8.960;2023-04-25T01:01:23;3.00;;;1.70;;
3149;SDS011;32503;47.748;8.960;2023-04-25T01:03:50;2.37;;;2.27;;
3149;SDS011;32503;47.748;8.960;2023-04-25T01:06:19;1.50;;;1.40;;
3149;SDS011;32503;47.748;8.960;2023-04-25T01:08:47;2.33;;;2.23;;
3149;SDS011;32503;47.748;8.960;2023-04-25T01:11:14;2.93;;;2.73;;
3149;SDS011;32503;47.748;8.960;2023-04-25T01:13:43;1.90;;;1.80;;
3149;SDS011;32503;47.748;8.960;2023-04-25T01:16:10;1.90;;;1.80;;
3149;SDS011;32503;47.748;8.960;2023-04-25T01:18:38;2.23;;;2.07;;
3149;SDS011;32503;47.748;8.960;2023-04-25T01:21:08;1.83;;;1.40;;
3149;SDS011;32503;47.748;8.960;2023-04-25T01:23:36;1.60;;;1.50;;
3149;SDS011;32503;47.748;8.960;2023-04-25T01:26:04;1.70;;;1.60;;
3149;SDS011;32503;47.748;8.960;2023-04-25T01:28:32;1.67;;;1.57;;
3149;SDS011;32503;47.748;8.960;2023-04-25T01:31:00;2.40;;;2.30;;
3149;SDS011;32503;47.748;8.960;2023-04-25T01:33:28;1.50;;;1.40;;
3149;SDS011;32503;47.748;8.960;2023-04-25T01:35:56;2.50;;;1.90;;
3149;SDS011;32503;47.748;8.960;2023-04-25T01:38:24;2.00;;;1.90;;
3149;SDS011;32503;47.748;8.960;2023-04-25T01:40:51;1.87;;;1.77;;
3149;SDS011;32503;47.748;8.960;2023-04-25T01:43:20;2.37;;;2.27;;
3149;SDS011;32503;47.748;8.960;2023-04-25T01:45:48;1.60;;;1.50;;
3149;SDS011;32503;47.748;8.960;2023-04-25T01:48:16;1.97;;;1.87;;
3149;SDS011;32503;47.748;8.960;2023-04-25T01:50:43;2.50;;;1.60;;
3149;SDS011;32503;47.748;8.960;2023-04-25T01:53:11;1.70;;;1.60;;
3149;SDS011;32503;47.748;8.960;2023-04-25T01:55:42;3.27;;;2.10;;
3149;SDS011;32503;47.748;8.960;2023-04-25T01:58:09;2.00;;;1.90;;
3149;SDS011;32503;47.748;8.960;2023-04-25T02:00:37;1.53;;;1.43;;
3149;SDS011;32503;47.748;8.960;2023-04-25T02:03:06;2.00;;;1.90;;
3149;SDS011;32503;47.748;8.960;2023-04-25T02:05:34;2.03;;;1.70;;
3149;SDS011;32503;47.748;8.960;2023-04-25T02:08:09;1.73;;;1.63;;
3149;SDS011;32503;47.748;8.960;2023-04-25T02:10:36;1.60;;;1.50;;
3149;SDS011;32503;47.748;8.960;2023-04-25T02:13:08;2.27;;;2.17;;
3149;SDS011;32503;47.748;8.960;2023-04-25T02:15:35;2.20;;;1.97;;
3149;SDS011;32503;47.748;8.960;2023-04-25T02:18:02;2.03;;;1.93;;
3149;SDS011;32503;47.748;8.960;2023-04-25T02:20:31;1.70;;;1.60;;
3149;SDS011;32503;47.748;8.960;2023-04-25T02:22:59;1.93;;;1.83;;
3149;SDS011;32503;47.748;8.960;2023-04-25T02:25:26;1.70;;;1.60;;
3149;SDS011;32503;47.748;8.960;2023-04-25T02:27:57;1.70;;;1.60;;
3149;SDS011;32503;47.748;8.960;2023-04-25T02:30:24;2.83;;;2.37;;
3149;SDS011;32503;47.748;8.960;2023-04-25T02:32:51;2.30;;;2.10;;
3149;SDS011;32503;47.748;8.960;2023-04-25T02:35:19;2.40;;;2.20;;
3149;SDS011;32503;47.748;8.960;2023-04-25T02:37:46;2.00;;;1.90;;
3149;SDS011;32503;47.748;8.960;2023-04-25T02:40:13;2.30;;;2.20;;
3149;SDS011;32503;47.748;8.960;2023-04-25T02:42:40;1.80;;;1.70;;
3149;SDS011;32503;47.748;8.960;2023-04-25T02:45:09;1.63;;;1.53;;
3149;SDS011;32503;47.748;8.960;2023-04-25T02:47:36;2.40;;;2.00;;
3149;SDS011;32503;47.748;8.960;2023-04-25T02:50:04;2.17;;;2.07;;
3149;SDS011;32503;47.748;8.960;2023-04-25T02:52:32;4.60;;;2.50;;
3149;SDS011;32503;47.748;8.960;2023-04-25T02:55:00;2.93;;;2.83;;
3149;SDS011;32503;47.748;8.960;2023-04-25T02:57:27;2.30;;;2.20;;
3149;SDS011;32503;47.748;8.960;2023-04-25T02:59:54;2.20;;;2.10;;
3149;SDS011;32503;47.748;8.960;2023-04-25T03:02:22;2.67;;;2.57;;
3149;SDS011;32503;47.748;8.960;2023-04-25T03:04:49;2.27;;;2.17;;
3149;SDS011;32503;47.748;8.960;2023-04-25T03:07:16;2.60;;;1.90;;
3149;SDS011;32503;47.748;8.960;2023-04-25T03:09:43;7.13;;;2.80;;
3149;SDS011;32503;47.748;8.960;2023-04-25T03:12:10;2.37;;;2.27;;
3149;SDS011;32503;47.748;8.960;2023-04-25T03:14:37;5.30;;;2.60;;
3149;SDS011;32503;47.748;8.960;2023-04-25T03:17:05;2.53;;;2.37;;
3149;SDS011;32503;47.748;8.960;2023-04-25T03:19:33;2.67;;;2.57;;
3149;SDS011;32503;47.748;8.960;2023-04-25T03:22:00;2.93;;;2.73;;
3149;SDS011;32503;47.748;8.960;2023-04-25T03:24:27;2.67;;;2.27;;
3149;SDS011;32503;47.748;8.960;2023-04-25T03:26:54;1.87;;;1.77;;
3149;SDS011;32503;47.748;8.960;2023-04-25T03:29:24;5.87;;;2.80;;
3149;SDS011;32503;47.748;8.960;2023-04-25T03:31:52;2.70;;;2.50;;
3149;SDS011;32503;47.748;8.960;2023-04-25T03:34:19;2.47;;;2.27;;
3149;SDS011;32503;47.748;8.960;2023-04-25T03:36:48;2.30;;;2.20;;
3149;SDS011;32503;47.748;8.960;2023-04-25T03:39:15;2.97;;;2.77;;
3149;SDS011;32503;47.748;8.960;2023-04-25T03:41:42;2.20;;;2.10;;
3149;SDS011;32503;47.748;8.960;2023-04-25T03:44:09;2.80;;;2.60;;
3149;SDS011;32503;47.748;8.960;2023-04-25T03:46:36;2.87;;;2.70;;
3149;SDS011;32503;47.748;8.960;2023-04-25T03:49:03;2.20;;;2.10;;
3149;SDS011;32503;47.748;8.960;2023-04-25T03:51:30;2.30;;;2.20;;
3149;SDS011;32503;47.748;8.960;2023-04-25T03:53:58;2.87;;;2.77;;
3149;SDS011;32503;47.748;8.960;2023-04-25T03:56:26;2.50;;;2.30;;
3149;SDS011;32503;47.748;8.960;2023-04-25T03:58:53;2.47;;;2.27;;
3149;SDS011;32503;47.748;8.960;2023-04-25T04:01:20;2.37;;;2.27;;
3149;SDS011;32503;47.748;8.960;2023-04-25T04:03:47;3.00;;;2.20;;
3149;SDS011;32503;47.748;8.960;2023-04-25T04:06:14;2.30;;;2.10;;
3149;SDS011;32503;47.748;8.960;2023-04-25T04:08:41;2.90;;;2.70;;
3149;SDS011;32503;47.748;8.960;2023-04-25T04:11:09;2.40;;;2.20;;
3149;SDS011;32503;47.748;8.960;2023-04-25T04:13:36;3.40;;;3.00;;
3149;SDS011;32503;47.748;8.960;2023-04-25T04:16:04;2.30;;;2.20;;
3149;SDS011;32503;47.748;8.960;2023-04-25T04:18:31;3.53;;;3.23;;
3149;SDS011;32503;47.748;8.960;2023-04-25T04:20:58;3.10;;;2.80;;
3149;SDS011;32503;47.748;8.960;2023-04-25T04:23:26;2.73;;;2.53;;
3149;SDS011;32503;47.748;8.960;2023-04-25T04:25:53;3.00;;;2.80;;
3149;SDS011;32503;47.748;8.960;2023-04-25T04:28:22;2.77;;;2.67;;
3149;SDS011;32503;47.748;8.960;2023-04-25T04:30:50;3.10;;;2.90;;
3149;SDS011;32503;47.748;8.960;2023-04-25T04:33:17;4.43;;;3.10;;
3149;SDS011;32503;47.748;8.960;2023-04-25T04:35:45;4.00;;;3.70;;
3149;SDS011;32503;47.748;8.960;2023-04-25T04:38:13;3.33;;;3.03;;
3149;SDS011;32503;47.748;8.960;2023-04-25T04:40:41;4.07;;;3.80;;
3149;SDS011;32503;47.748;8.960;2023-04-25T04:43:08;4.50;;;4.17;;
3149;SDS011;32503;47.748;8.960;2023-04-25T04:45:37;3.83;;;3.63;;
3149;SDS011;32503;47.748;8.960;2023-04-25T04:48:05;3.93;;;3.63;;
3149;SDS011;32503;47.748;8.960;2023-04-25T04:50:32;3.70;;;3.40;;
3149;SDS011;32503;47.748;8.960;2023-04-25T04:53:01;3.90;;;3.70;;
3149;SDS011;32503;47.748;8.960;2023-04-25T04:55:30;5.43;;;5.03;;
3149;SDS011;32503;47.748;8.960;2023-04-25T04:57:57;4.77;;;4.37;;
3149;SDS011;32503;47.748;8.960;2023-04-25T05:00:24;4.30;;;4.10;;
3149;SDS011;32503;47.748;8.960;2023-04-25T05:02:54;4.20;;;3.90;;
3149;SDS011;32503;47.748;8.960;2023-04-25T05:05:21;3.90;;;3.60;;
3149;SDS011;32503;47.748;8.960;2023-04-25T05:07:48;4.93;;;4.53;;
3149;SDS011;32503;47.748;8.960;2023-04-25T05:10:16;4.57;;;3.50;;
3149;SDS011;32503;47.748;8.960;2023-04-25T05:12:43;3.80;;;3.60;;
3149;SDS011;32503;47.748;8.960;2023-04-25T05:15:10;3.80;;;3.50;;
3149;SDS011;32503;47.748;8.960;2023-04-25T05:17:38;3.93;;;3.63;;
3149;SDS011;32503;47.748;8.960;2023-04-25T05:20:07;3.07;;;2.87;;
3149;SDS011;32503;47.748;8.960;2023-04-25T05:22:35;4.53;;;3.53;;
3149;SDS011;32503;47.748;8.960;2023-04-25T05:25:02;3.37;;;3.17;;
3149;SDS011;32503;47.748;8.960;2023-04-25T05:27:30;3.30;;;3.10;;
3149;SDS011;32503;47.748;8.960;2023-04-25T05:29:57;3.27;;;3.00;;
3149;SDS011;32503;47.748;8.960;2023-04-25T05:32:24;4.03;;;3.63;;
3149;SDS011;32503;47.748;8.960;2023-04-25T05:34:51;4.20;;;3.90;;
3149;SDS011;32503;47.748;8.960;2023-04-25T05:37:20;3.90;;;3.60;;
3149;SDS011;32503;47.748;8.960;2023-04-25T05:39:47;4.00;;;3.77;;
3149;SDS011;32503;47.748;8.960;2023-04-25T05:42:14;3.83;;;3.53;;
3149;SDS011;32503;47.748;8.960;2023-04-25T05:44:41;4.40;;;4.10;;
3149;SDS011;32503;47.748;8.960;2023-04-25T05:47:08;3.73;;;3.43;;
3149;SDS011;32503;47.748;8.960;2023-04-25T05:49:35;5.80;;;3.60;;
3149;SDS011;32503;47.748;8.960;2023-04-25T05:52:02;3.43;;;3.13;;
3149;SDS011;32503;47.748;8.960;2023-04-25T05:54:31;2.70;;;2.50;;
3149;SDS011;32503;47.748;8.960;2023-04-25T05:56:58;3.30;;;3.10;;
3149;SDS011;32503;47.748;8.960;2023-04-25T05:59:25;3.70;;;3.33;;
3149;SDS011;32503;47.748;8.960;2023-04-25T06:01:52;5.23;;;3.33;;
3149;SDS011;32503;47.748;8.960;2023-04-25T06:04:19;3.40;;;3.13;;
3149;SDS011;32503;47.748;8.960;2023-04-25T06:06:46;2.77;;;2.67;;
3149;SDS011;32503;47.748;8.960;2023-04-25T06:09:13;2.90;;;2.70;;
3149;SDS011;32503;47.748;8.960;2023-04-25T06:11:42;4.23;;;3.43;;
3149;SDS011;32503;47.748;8.960;2023-04-25T06:14:09;3.20;;;3.00;;
3149;SDS011;32503;47.748;8.960;2023-04-25T06:16:36;5.30;;;3.33;;
3149;SDS011;32503;47.748;8.960;2023-04-25T06:19:03;3.50;;;3.30;;
3149;SDS011;32503;47.748;8.960;2023-04-25T06:21:30;3.45;;;3.20;;
3149;SDS011;32503;47.748;8.960;2023-04-25T06:23:57;3.00;;;2.80;;
3149;SDS011;32503;47.748;8.960;2023-04-25T06:26:24;7.40;;;6.70;;
3149;SDS011;32503;47.748;8.960;2023-04-25T06:28:53;3.73;;;3.53;;
3149;SDS011;32503;47.748;8.960;2023-04-25T06:31:20;3.10;;;2.90;;
3149;SDS011;32503;47.748;8.960;2023-04-25T06:33:47;3.40;;;3.10;;
3149;SDS011;32503;47.748;8.960;2023-04-25T06:36:14;2.80;;;2.60;;
3149;SDS011;32503;47.748;8.960;2023-04-25T06:38:41;2.30;;;2.20;;
3149;SDS011;32503;47.748;8.960;2023-04-25T06:41:08;4.27;;;3.93;;
3149;SDS011;32503;47.748;8.960;2023-04-25T06:43:35;4.30;;;2.47;;
3149;SDS011;32503;47.748;8.960;2023-04-25T06:46:03;2.73;;;2.57;;
3149;SDS011;32503;47.748;8.960;2023-04-25T06:48:30;3.03;;;2.83;;
3149;SDS011;32503;47.748;8.960;2023-04-25T06:50:57;2.77;;;2.60;;
3149;SDS011;32503;47.748;8.960;2023-04-25T06:53:24;3.20;;;3.00;;
3149;SDS011;32503;47.748;8.960;2023-04-25T06:55:51;3.07;;;2.87;;
3149;SDS011;32503;47.748;8.960;2023-04-25T06:58:18;2.97;;;2.50;;
3149;SDS011;32503;47.748;8.960;2023-04-25T07:00:46;4.13;;;3.70;;
3149;SDS011;32503;47.748;8.960;2023-04-25T07:03:14;5.13;;;3.40;;
3149;SDS011;32503;47.748;8.960;2023-04-25T07:05:41;3.60;;;3.30;;
3149;SDS011;32503;47.748;8.960;2023-04-25T07:08:08;3.97;;;3.63;;
3149;SDS011;32503;47.748;8.960;2023-04-25T07:10:35;3.57;;;3.27;;
3149;SDS011;32503;47.748;8.960;2023-04-25T07:13:02;3.40;;;3.20;;
3149;SDS011;32503;47.748;8.960;2023-04-25T07:15:29;3.30;;;3.00;;
3149;SDS011;32503;47.748;8.960;2023-04-25T07:17:56;2.77;;;2.30;;
3149;SDS011;32503;47.748;8.960;2023-04-25T07:20:25;2.00;;;1.90;;
3149;SDS011;32503;47.748;8.960;2023-04-25T07:22:52;2.20;;;2.10;;
3149;SDS011;32503;47.748;8.960;2023-04-25T07:25:20;3.07;;;2.20;;
3149;SDS011;32503;47.748;8.960;2023-04-25T07:27:47;3.60;;;2.63;;
3149;SDS011;32503;47.748;8.960;2023-04-25T07:30:14;2.33;;;2.13;;
3149;SDS011;32503;47.748;8.960;2023-04-25T07:32:41;2.33;;;2.23;;
3149;SDS011;32503;47.748;8.960;2023-04-25T07:35:08;2.50;;;2.37;;
3149;SDS011;32503;47.748;8.960;2023-04-25T07:37:37;1.90;;;1.80;;
3149;SDS011;32503;47.748;8.960;2023-04-25T07:40:05;2.33;;;1.57;;
3149;SDS011;32503;47.748;8.960;2023-04-25T07:42:34;2.30;;;1.40;;
3149;SDS011;32503;47.748;8.960;2023-04-25T07:45:01;1.30;;;1.20;;
3149;SDS011;32503;47.748;8.960;2023-04-25T07:47:29;1.50;;;1.40;;
3149;SDS011;32503;47.748;8.960;2023-04-25T07:49:56;1.67;;;1.57;;
3149;SDS011;32503;47.748;8.960;2023-04-25T07:52:23;2.23;;;2.07;;
3149;SDS011;32503;47.748;8.960;2023-04-25T07:54:52;1.83;;;1.73;;
3149;SDS011;32503;47.748;8.960;2023-04-25T07:57:20;1.90;;;1.80;;
3149;SDS011;32503;47.748;8.960;2023-04-25T07:59:47;1.97;;;1.87;;
3149;SDS011;32503;47.748;8.960;2023-04-25T08:02:14;2.63;;;2.53;;
3149;SDS011;32503;47.748;8.960;2023-04-25T08:04:41;1.90;;;1.60;;
3149;SDS011;32503;47.748;8.960;2023-04-25T08:07:08;1.60;;;1.50;;
3149;SDS011;32503;47.748;8.960;2023-04-25T08:09:35;1.60;;;1.50;;
3149;SDS011;32503;47.748;8.960;2023-04-25T08:12:04;2.30;;;2.10;;
3149;SDS011;32503;47.748;8.960;2023-04-25T08:14:31;2.00;;;1.87;;
3149;SDS011;32503;47.748;8.960;2023-04-25T08:17:01;2.00;;;1.90;;
3149;SDS011;32503;47.748;8.960;2023-04-25T08:19:28;2.10;;;2.00;;
3149;SDS011;32503;47.748;8.960;2023-04-25T08:21:57;2.67;;;2.57;;
3149;SDS011;32503;47.748;8.960;2023-04-25T08:24:24;2.47;;;2.33;;
3149;SDS011;32503;47.748;8.960;2023-04-25T08:26:51;2.67;;;2.23;;
3149;SDS011;32503;47.748;8.960;2023-04-25T08:29:20;2.07;;;1.97;;
3149;SDS011;32503;47.748;8.960;2023-04-25T08:31:48;2.17;;;2.07;;
3149;SDS011;32503;47.748;8.960;2023-04-25T08:34:17;2.00;;;1.90;;
3149;SDS011;32503;47.748;8.960;2023-04-25T08:36:45;2.07;;;1.97;;
3149;SDS011;32503;47.748;8.960;2023-04-25T08:39:12;2.60;;;2.50;;
3149;SDS011;32503;47.748;8.960;2023-04-25T08:41:39;3.70;;;3.40;;
3149;SDS011;32503;47.748;8.960;2023-04-25T08:44:07;3.47;;;3.17;;
3149;SDS011;32503;47.748;8.960;2023-04-25T08:46:39;3.40;;;3.20;;
3149;SDS011;32503;47.748;8.960;2023-04-25T08:49:07;6.00;;;3.60;;
3149;SDS011;32503;47.748;8.960;2023-04-25T08:51:35;3.57;;;3.30;;
3149;SDS011;32503;47.748;8.960;2023-04-25T08:54:13;4.43;;;3.07;;
3149;SDS011;32503;47.748;8.960;2023-04-25T08:56:41;3.30;;;3.10;;
3149;SDS011;32503;47.748;8.960;2023-04-25T08:59:11;2.93;;;2.80;;
3149;SDS011;32503;47.748;8.960;2023-04-25T09:01:40;3.43;;;3.10;;
3149;SDS011;32503;47.748;8.960;2023-04-25T09:04:07;3.23;;;2.87;;
3149;SDS011;32503;47.748;8.960;2023-04-25T09:06:34;2.60;;;2.47;;
3149;SDS011;32503;47.748;8.960;2023-04-25T09:09:02;2.53;;;2.40;;
3149;SDS011;32503;47.748;8.960;2023-04-25T09:11:31;2.87;;;2.73;;
3149;SDS011;32503;47.748;8.960;2023-04-25T09:14:12;2.80;;;2.70;;
3149;SDS011;32503;47.748;8.960;2023-04-25T09:19:29;2.83;;;2.63;;
3149;SDS011;32503;47.748;8.960;2023-04-25T09:21:57;2.37;;;2.20;;
3149;SDS011;32503;47.748;8.960;2023-04-25T09:24:31;1.83;;;1.73;;
3149;SDS011;32503;47.748;8.960;2023-04-25T09:27:02;2.10;;;2.00;;
3149;SDS011;32503;47.748;8.960;2023-04-25T09:29:31;2.13;;;2.03;;
3149;SDS011;32503;47.748;8.960;2023-04-25T09:32:13;2.60;;;2.37;;
3149;SDS011;32503;47.748;8.960;2023-04-25T09:34:44;1.93;;;1.83;;
3149;SDS011;32503;47.748;8.960;2023-04-25T09:37:16;1.80;;;1.70;;
3149;SDS011;32503;47.748;8.960;2023-04-25T09:39:45;2.40;;;2.30;;
3149;SDS011;32503;47.748;8.960;2023-04-25T09:42:13;1.60;;;1.50;;
3149;SDS011;32503;47.748;8.960;2023-04-25T09:44:42;1.57;;;1.47;;
3149;SDS011;32503;47.748;8.960;2023-04-25T09:47:11;1.10;;;1.00;;
3149;SDS011;32503;47.748;8.960;2023-04-25T09:49:42;1.93;;;1.50;;
3149;SDS011;32503;47.748;8.960;2023-04-25T09:52:13;1.10;;;1.00;;
3149;SDS011;32503;47.748;8.960;2023-04-25T09:54:42;1.23;;;1.13;;
3149;SDS011;32503;47.748;8.960;2023-04-25T09:57:10;1.50;;;1.40;;
3149;SDS011;32503;47.748;8.960;2023-04-25T09:59:43;1.07;;;0.97;;
3149;SDS011;32503;47.748;8.960;2023-04-25T10:02:12;1.23;;;1.13;;
3149;SDS011;32503;47.748;8.960;2023-04-25T10:04:44;3.80;;;3.50;;
3149;SDS011;32503;47.748;8.960;2023-04-25T10:07:13;1.70;;;1.60;;
3149;SDS011;32503;47.748;8.960;2023-04-25T10:09:41;1.27;;;1.17;;
3149;SDS011;32503;47.748;8.960;2023-04-25T10:12:10;1.37;;;1.10;;
3149;SDS011;32503;47.748;8.960;2023-04-25T10:14:38;1.00;;;0.90;;
3149;SDS011;32503;47.748;8.960;2023-04-25T10:17:05;1.03;;;0.93;;
3149;SDS011;32503;47.748;8.960;2023-04-25T10:19:35;1.10;;;1.00;;
3149;SDS011;32503;47.748;8.960;2023-04-25T10:22:04;1.20;;;1.10;;
3149;SDS011;32503;47.748;8.960;2023-04-25T10:24:34;0.90;;;0.80;;
3149;SDS011;32503;47.748;8.960;2023-04-25T10:27:02;0.93;;;0.90;;
3149;SDS011;32503;47.748;8.960;2023-04-25T10:29:30;1.20;;;1.10;;
3149;SDS011;32503;47.748;8.960;2023-04-25T10:31:57;1.00;;;0.90;;
3149;SDS011;32503;47.748;8.960;2023-04-25T10:34:38;1.70;;;1.30;;
3149;SDS011;32503;47.748;8.960;2023-04-25T10:37:08;1.53;;;1.43;;
3149;SDS011;32503;47.748;8.960;2023-04-25T10:39:37;0.80;;;0.80;;
3149;SDS011;32503;47.748;8.960;2023-04-25T10:42:06;0.90;;;0.70;;
3149;SDS011;32503;47.748;8.960;2023-04-25T10:44:34;0.70;;;0.60;;
3149;SDS011;32503;47.748;8.960;2023-04-25T10:47:06;0.80;;;0.60;;
3149;SDS011;32503;47.748;8.960;2023-04-25T10:49:35;0.70;;;0.70;;
3149;SDS011;32503;47.748;8.960;2023-04-25T10:52:11;0.60;;;0.60;;
3149;SDS011;32503;47.748;8.960;2023-04-25T10:54:51;0.63;;;0.60;;
3149;SDS011;32503;47.748;8.960;2023-04-25T10:57:26;0.70;;;0.60;;
3149;SDS011;32503;47.748;8.960;2023-04-25T10:59:59;0.70;;;0.53;;
3149;SDS011;32503;47.748;8.960;2023-04-25T11:02:31;0.70;;;0.60;;
3149;SDS011;32503;47.748;8.960;2023-04-25T11:05:04;0.70;;;0.60;;
3149;SDS011;32503;47.748;8.960;2023-04-25T11:07:34;0.60;;;0.60;;
3149;SDS011;32503;47.748;8.960;2023-04-25T11:10:05;1.10;;;1.00;;
3149;SDS011;32503;47.748;8.960;2023-04-25T11:12:33;3.90;;;0.50;;
3149;SDS011;32503;47.748;8.960;2023-04-25T11:15:01;0.80;;;0.80;;
3149;SDS011;32503;47.748;8.960;2023-04-25T11:17:29;0.77;;;0.60;;
3149;SDS011;32503;47.748;8.960;2023-04-25T11:19:57;0.80;;;0.60;;
3149;SDS011;32503;47.748;8.960;2023-04-25T11:22:25;0.90;;;0.60;;
3149;SDS011;32503;47.748;8.960;2023-04-25T11:24:53;0.60;;;0.50;;
3149;SDS011;32503;47.748;8.960;2023-04-25T11:27:20;0.70;;;0.70;;
3149;SDS011;32503;47.748;8.960;2023-04-25T11:29:49;1.10;;;0.60;;
3149;SDS011;32503;47.748;8.960;2023-04-25T11:32:17;1.20;;;1.10;;
3149;SDS011;32503;47.748;8.960;2023-04-25T11:34:45;0.70;;;0.60;;
3149;SDS011;32503;47.748;8.960;2023-04-25T11:37:13;0.60;;;0.50;;
3149;SDS011;32503;47.748;8.960;2023-04-25T11:39:45;0.87;;;0.63;;
3149;SDS011;32503;47.748;8.960;2023-04-25T11:42:13;0.60;;;0.50;;
3149;SDS011;32503;47.748;8.960;2023-04-25T11:44:40;0.60;;;0.60;;
3149;SDS011;32503;47.748;8.960;2023-04-25T11:47:07;0.60;;;0.50;;
3149;SDS011;32503;47.748;8.960;2023-04-25T11:49:34;0.70;;;0.70;;
3149;SDS011;32503;47.748;8.960;2023-04-25T11:52:02;0.60;;;0.43;;
3149;SDS011;32503;47.748;8.960;2023-04-25T11:54:34;0.80;;;0.80;;
3149;SDS011;32503;47.748;8.960;2023-04-25T11:57:04;0.60;;;0.50;;
3149;SDS011;32503;47.748;8.960;2023-04-25T11:59:31;0.70;;;0.60;;
3149;SDS011;32503;47.748;8.960;2023-04-25T12:01:58;0.70;;;0.50;;
3149;SDS011;32503;47.748;8.960;2023-04-25T12:04:29;0.90;;;0.73;;
3149;SDS011;32503;47.748;8.960;2023-04-25T12:06:58;0.70;;;0.60;;
3149;SDS011;32503;47.748;8.960;2023-04-25T12:09:30;0.70;;;0.67;;
3149;SDS011;32503;47.748;8.960;2023-04-25T12:11:59;0.80;;;0.80;;
3149;SDS011;32503;47.748;8.960;2023-04-25T12:14:30;0.63;;;0.60;;
3149;SDS011;32503;47.748;8.960;2023-04-25T12:17:00;1.47;;;0.90;;
3149;SDS011;32503;47.748;8.960;2023-04-25T12:19:31;1.10;;;0.93;;
3149;SDS011;32503;47.748;8.960;2023-04-25T12:22:00;0.93;;;0.90;;
3149;SDS011;32503;47.748;8.960;2023-04-25T12:24:29;1.30;;;1.20;;
3149;SDS011;32503;47.748;8.960;2023-04-25T12:27:00;0.90;;;0.90;;
3149;SDS011;32503;47.748;8.960;2023-04-25T12:29:30;0.77;;;0.63;;
3149;SDS011;32503;47.748;8.960;2023-04-25T12:31:59;0.90;;;0.90;;
3149;SDS011;32503;47.748;8.960;2023-04-25T12:34:27;0.70;;;0.60;;
3149;SDS011;32503;47.748;8.960;2023-04-25T12:36:56;1.90;;;1.33;;
3149;SDS011;32503;47.748;8.960;2023-04-25T12:39:24;1.20;;;0.80;;
3149;SDS011;32503;47.748;8.960;2023-04-25T12:41:51;1.10;;;1.00;;
3149;SDS011;32503;47.748;8.960;2023-04-25T12:44:19;0.90;;;0.90;;
3149;SDS011;32503;47.748;8.960;2023-04-25T12:46:48;0.90;;;0.77;;
3149;SDS011;32503;47.748;8.960;2023-04-25T12:49:16;0.80;;;0.77;;
3149;SDS011;32503;47.748;8.960;2023-04-25T12:51:43;0.83;;;0.83;;
3149;SDS011;32503;47.748;8.960;2023-04-25T12:54:10;1.00;;;0.90;;
3149;SDS011;32503;47.748;8.960;2023-04-25T12:56:37;1.13;;;0.70;;
3149;SDS011;32503;47.748;8.960;2023-04-25T12:59:04;1.10;;;1.00;;
3149;SDS011;32503;47.748;8.960;2023-04-25T13:01:31;0.80;;;0.80;;
3149;SDS011;32503;47.748;8.960;2023-04-25T13:04:00;1.87;;;1.50;;
3149;SDS011;32503;47.748;8.960;2023-04-25T13:06:27;1.30;;;0.80;;
3149;SDS011;32503;47.748;8.960;2023-04-25T13:08:55;1.10;;;1.00;;
3149;SDS011;32503;47.748;8.960;2023-04-25T13:11:22;1.47;;;1.37;;
3149;SDS011;32503;47.748;8.960;2023-04-25T13:13:49;1.80;;;1.70;;
3149;SDS011;32503;47.748;8.960;2023-04-25T13:16:16;1.50;;;1.40;;
3149;SDS011;32503;47.748;8.960;2023-04-25T13:18:45;1.20;;;1.10;;
3149;SDS011;32503;47.748;8.960;2023-04-25T13:21:14;1.33;;;1.20;;
3149;SDS011;32503;47.748;8.960;2023-04-25T13:23:41;0.80;;;0.80;;
3149;SDS011;32503;47.748;8.960;2023-04-25T13:26:09;0.87;;;0.87;;
3149;SDS011;32503;47.748;8.960;2023-04-25T13:28:36;2.23;;;1.13;;
3149;SDS011;32503;47.748;8.960;2023-04-25T13:31:05;1.20;;;1.10;;
3149;SDS011;32503;47.748;8.960;2023-04-25T13:33:32;1.10;;;1.10;;
3149;SDS011;32503;47.748;8.960;2023-04-25T13:36:00;0.90;;;0.90;;
3149;SDS011;32503;47.748;8.960;2023-04-25T13:38:29;1.40;;;0.77;;
3149;SDS011;32503;47.748;8.960;2023-04-25T13:40:56;0.90;;;0.80;;
3149;SDS011;32503;47.748;8.960;2023-04-25T13:43:23;1.77;;;1.20;;
3149;SDS011;32503;47.748;8.960;2023-04-25T13:45:50;0.80;;;0.80;;
3149;SDS011;32503;47.748;8.960;2023-04-25T13:48:17;1.87;;;0.90;;
3149;SDS011;32503;47.748;8.960;2023-04-25T13:50:45;1.00;;;0.90;;
3149;SDS011;32503;47.748;8.960;2023-04-25T13:53:13;1.60;;;0.90;;
3149;SDS011;32503;47.748;8.960;2023-04-25T13:55:41;0.87;;;0.87;;
3149;SDS011;32503;47.748;8.960;2023-04-25T13:58:08;1.57;;;0.83;;
3149;SDS011;32503;47.748;8.960;2023-04-25T14:00:35;1.30;;;1.20;;
3149;SDS011;32503;47.748;8.960;2023-04-25T14:03:04;1.83;;;1.13;;
3149;SDS011;32503;47.748;8.960;2023-04-25T14:05:33;1.10;;;1.00;;
3149;SDS011;32503;47.748;8.960;2023-04-25T14:08:05;1.00;;;0.90;;
3149;SDS011;32503;47.748;8.960;2023-04-25T14:10:32;2.60;;;1.00;;
3149;SDS011;32503;47.748;8.960;2023-04-25T14:13:01;1.77;;;1.30;;
3149;SDS011;32503;47.748;8.960;2023-04-25T14:15:30;1.40;;;1.30;;
3149;SDS011;32503;47.748;8.960;2023-04-25T14:17:57;1.50;;;1.40;;
3149;SDS011;32503;47.748;8.960;2023-04-25T14:20:25;1.10;;;1.00;;
3149;SDS011;32503;47.748;8.960;2023-04-25T14:22:52;0.90;;;0.90;;
3149;SDS011;32503;47.748;8.960;2023-04-25T14:25:21;1.03;;;1.00;;
3149;SDS011;32503;47.748;8.960;2023-04-25T14:27:48;1.10;;;1.03;;
3149;SDS011;32503;47.748;8.960;2023-04-25T14:30:17;0.93;;;0.83;;
3149;SDS011;32503;47.748;8.960;2023-04-25T14:32:45;1.30;;;1.20;;
3149;SDS011;32503;47.748;8.960;2023-04-25T14:35:12;1.20;;;1.10;;
3149;SDS011;32503;47.748;8.960;2023-04-25T14:37:40;1.20;;;1.10;;
3149;SDS011;32503;47.748;8.960;2023-04-25T14:40:07;1.00;;;0.90;;
3149;SDS011;32503;47.748;8.960;2023-04-25T14:42:37;1.47;;;1.37;;
3149;SDS011;32503;47.748;8.960;2023-04-25T14:45:04;0.80;;;0.80;;
3149;SDS011;32503;47.748;8.960;2023-04-25T14:47:34;0.90;;;0.80;;
3149;SDS011;32503;47.748;8.960;2023-04-25T14:50:02;0.90;;;0.90;;
3149;SDS011;32503;47.748;8.960;2023-04-25T14:52:30;0.80;;;0.80;;
3149;SDS011;32503;47.748;8.960;2023-04-25T14:54:57;1.10;;;1.00;;
3149;SDS011;32503;47.748;8.960;2023-04-25T14:57:25;1.50;;;1.27;;
3149;SDS011;32503;47.748;8.960;2023-04-25T14:59:52;0.93;;;0.93;;
3149;SDS011;32503;47.748;8.960;2023-04-25T15:02:19;0.90;;;0.80;;
3149;SDS011;32503;47.748;8.960;2023-04-25T15:04:47;1.27;;;1.10;;
3149;SDS011;32503;47.748;8.960;2023-04-25T15:07:14;0.90;;;0.80;;
3149;SDS011;32503;47.748;8.960;2023-04-25T15:09:42;1.20;;;1.10;;